Tilley, Canada
Current Conditions -  °F | °C
As of 2:00 AM on Friday 24 Oct 2014 (Local Time) from CYXH Reporting Station
Clear Clear  
Wind Chill: 50°   Ceiling: Unl
Heat Index: 50°   Visibility: 9mi
Dew Point: 37°   Wind: 17mph
Humidity: 62%   Direction: 210°SSW
Pressure: 29.7"   Gusts: 26mph
Location:  50.45°N, 111.65°W
Report Text: CYXH 240800Z AUTO 21015G23KT 9SM CLR 10/03 A2970 RMK SLP063 DENSITY ALT 2500FT
Loading
Personal Weather Stations






























Interactive Weather Map
Tropical Storm Tracking
New forecast layout! Learn more

10-Day Weather Forecast

Advertisements
Track Severe Weather on mobile